Dunmore Town, Bahamas

9:31 PM EDT on July 30, 2015 (GMT -0400)
Spanish Wells | | Change Station
CLOSE
Current Station
Personal Weather Station
Location: Spanish Wells, SPANISH WELLS
Elevation: 33 ft
Nearby Weather Stations

Elev 33 ft 25.54 °N, 76.75 °W | Updated 15 seconds ago

Mostly Cloudy
Mostly Cloudy
83.8 °F
Feels Like 96 °F
N
4.3
Wind Variable Wind from SSW
Gusts 7.4 mph

Today
High -- | Low -- °F
--% Chance of Precip.
Yesterday
High -- | Low -- °F
Precip. -- in
6:35 AM 7:57 PM
Full, 100% visible
Pressure 30.03 in
Visibility 6.2 miles
Clouds Few 1600 ft
Mostly Cloudy 10000 ft
Mostly Cloudy 22000 ft
Heat Index 96 °F
Dew Point 80 °F
Humidity 87%
Rainfall 0.00 in
Snow Depth Not available.
UV 0.0 out of 12
Pollen Not available.
Air Quality Not available.
Flu Activity Not available.
METAR MYNN 310000Z 18008KT 9999 FEW016 BKN100 BKN220 30/26 A3003

More Conditions Fewer Conditions

Pressure 30.03 in
Visibility 6.2 miles
Clouds Few 1600 ft
Mostly Cloudy 10000 ft
Mostly Cloudy 22000 ft
Heat Index 96 °F
Dew Point 80 °F
Humidity 87%
Rainfall 0.00 in
Snow Depth Not available.
UV 0.0 out of 12
Pollen Not available.
Air Quality Not available.
Flu Activity Not available.
METAR MYNN 310000Z 18008KT 9999 FEW016 BKN100 BKN220 30/26 A3003

More Conditions Fewer Conditions

10-Day Weather Forecast

×

Almanac

Astronomy

Jul. 30, 2015 Rise Set
Actual Time
Civil Twilight
Nautical Twilight
Astronomical Twilight
Moon
Length of Visible Light
Length of Day
Tomorrow will be .
, % of the Moon is Illuminated

Today's Extremes

Country Highs Country Lows

Community

WunderPhotos

Upload Photos

1,842,563 photos uploaded!

WunderBlogs® & News

Nearby

Air Quality

  Air Quality AQ Index Pollutant
Not available.

Snow Depth

Station Depth Elevation

Earthquake Activity

City Distance Mag. Time & Date
Minimum magnitude displayed is 2.5.

Coastal Water Temperatures

Place Temperature

Stations

Nearby Weather Stations

Station Location Temp. Windchill Dew Point Humidity Wind Precip. Elev Updated Type